Time;durP1;ratioP1;P1;durP2;ratioP2;P2;SDS_P1;SDS_P2;PMS_P1;PMS_P2;Temp;Humidity;BMP_temperature;BMP_pressure;BME280_temperature;BME280_humidity;BME280_pressure;Samples;Min_cycle;Max_cycle;Signal;HPM_P1;HPM_P2
2023/04/23 00:00:12;;;;;;;5.63;3.50;;;;;;;10.82;73.28;101324.03;5027547;28;20029;-90
2023/04/23 00:02:37;;;;;;;6.18;4.07;;;;;;;10.84;72.97;101326.56;5027386;28;20481;-91
2023/04/23 00:05:04;;;;;;;4.68;3.50;;;;;;;10.80;73.32;101324.97;5027094;28;20113;-91
2023/04/23 00:07:31;;;;;;;4.20;2.85;;;;;;;10.56;73.99;101296.56;5027221;28;20033;-91
2023/04/23 00:09:57;;;;;;;4.90;3.33;;;;;;;10.76;73.65;101328.59;5027551;28;20026;-92
2023/04/23 00:12:23;;;;;;;4.38;2.90;;;;;;;10.69;73.63;101301.25;5027274;28;20069;-91
2023/04/23 00:14:48;;;;;;;4.53;3.40;;;;;;;10.85;74.10;101329.09;5027294;28;20030;-90
2023/04/23 00:17:14;;;;;;;6.20;4.38;;;;;;;10.91;73.53;101322.81;5010544;28;20053;-90
2023/04/23 00:19:39;;;;;;;6.50;3.63;;;;;;;10.96;73.49;101331.25;5026641;28;20034;-90
2023/04/23 00:22:05;;;;;;;5.07;3.30;;;;;;;10.96;73.74;101323.50;5027228;28;20034;-90
2023/04/23 00:24:32;;;;;;;5.60;3.35;;;;;;;11.02;73.10;101331.03;5027094;28;20186;-91
2023/04/23 00:26:58;;;;;;;6.80;5.10;;;;;;;10.96;73.34;101320.06;5027035;28;20041;-91
2023/04/23 00:29:23;;;;;;;5.72;4.28;;;;;;;10.95;73.66;101323.56;5027285;28;20030;-92
2023/04/23 00:31:49;;;;;;;4.15;3.17;;;;;;;10.81;73.92;101311.97;5026876;28;20030;-91
2023/04/23 00:34:14;;;;;;;9.05;4.57;;;;;;;10.74;73.56;101309.69;5027095;28;20526;-89
2023/04/23 00:36:40;;;;;;;5.50;3.22;;;;;;;10.71;73.29;101302.88;5030774;28;20033;-92
2023/04/23 00:39:05;;;;;;;5.32;3.55;;;;;;;10.73;72.81;101321.81;5014332;28;20088;-90
2023/04/23 00:41:31;;;;;;;3.13;2.60;;;;;;;10.76;72.79;101328.59;5030807;28;20408;-91
2023/04/23 00:43:56;;;;;;;4.28;2.50;;;;;;;10.77;72.27;101331.13;5015579;28;20061;-91
2023/04/23 00:46:23;;;;;;;6.50;3.80;;;;;;;10.71;72.06;101313.22;5030760;28;20033;-90
2023/04/23 00:48:49;;;;;;;5.88;3.22;;;;;;;10.72;72.16;101322.72;5013895;28;20025;-90
2023/04/23 00:51:15;;;;;;;4.85;3.38;;;;;;;10.67;72.22;101321.19;5030645;28;20037;-90
2023/04/23 00:53:40;;;;;;;4.47;2.90;;;;;;;10.60;72.62;101324.00;5030362;28;20106;-91
2023/04/23 00:56:07;;;;;;;3.42;3.13;;;;;;;10.63;72.38;101328.22;5030388;28;20026;-91
2023/04/23 00:58:32;;;;;;;3.55;3.08;;;;;;;10.58;72.13;101330.97;5030475;28;20034;-90
2023/04/23 01:00:58;;;;;;;4.15;2.55;;;;;;;10.61;72.12;101325.69;5013815;28;20461;-90
2023/04/23 01:03:24;;;;;;;3.90;2.70;;;;;;;10.68;71.90;101326.28;5030040;28;20034;-90
2023/04/23 01:05:50;;;;;;;4.00;2.78;;;;;;;10.72;71.97;101329.63;5030512;28;20022;-92
2023/04/23 01:08:16;;;;;;;4.47;3.00;;;;;;;10.66;72.12;101328.09;5030110;28;20525;-90
2023/04/23 01:10:42;;;;;;;4.72;3.72;;;;;;;10.59;72.38;101324.06;5030303;28;20407;-91
2023/04/23 01:13:08;;;;;;;4.13;3.00;;;;;;;10.61;72.08;101325.69;5013820;28;20033;-90
2023/04/23 01:15:33;;;;;;;4.95;2.83;;;;;;;10.48;72.07;101305.50;5030091;28;20045;-92
2023/04/23 01:17:59;;;;;;;6.43;3.92;;;;;;;10.46;72.16;101315.91;5029362;28;20054;-91
2023/04/23 01:20:24;;;;;;;4.00;2.47;;;;;;;10.49;71.60;101310.63;5030239;28;20033;-91
2023/04/23 01:22:49;;;;;;;6.50;3.35;;;;;;;10.37;71.61;101315.41;5013419;28;20121;-89
2023/04/23 01:25:15;;;;;;;2.70;2.17;;;;;;;10.35;71.92;101323.25;5030085;28;20030;-91
2023/04/23 01:27:41;;;;;;;3.75;3.00;;;;;;;10.26;72.03;101323.56;5030176;28;20084;-90
2023/04/23 01:30:07;;;;;;;4.05;2.90;;;;;;;10.20;72.69;101331.50;5029758;28;20479;-90
2023/04/23 01:32:33;;;;;;;3.92;2.53;;;;;;;10.18;72.55;101322.97;5029443;28;20026;-90
2023/04/23 01:34:58;;;;;;;3.75;2.28;;;;;;;10.15;72.87;101328.25;5029783;28;20033;-91
2023/04/23 01:37:23;;;;;;;3.95;2.88;;;;;;;10.11;72.78;101329.25;5029482;28;20034;-91
2023/04/23 01:39:49;;;;;;;4.40;3.35;;;;;;;10.08;72.99;101335.38;5029625;28;20033;-90
2023/04/23 01:42:14;;;;;;;3.00;2.25;;;;;;;10.10;73.27;101327.56;5029941;28;20034;-91
2023/04/23 01:44:40;;;;;;;5.70;2.65;;;;;;;10.15;73.29;101333.44;5029771;28;20026;-90
2023/04/23 01:47:05;;;;;;;3.17;2.88;;;;;;;10.18;73.22;101326.41;5029259;28;20044;-91
2023/04/23 01:49:31;;;;;;;4.97;3.08;;;;;;;10.20;72.98;101334.09;5012949;28;20029;-91
2023/04/23 01:51:56;;;;;;;4.00;2.80;;;;;;;10.19;73.18;101324.66;5029235;28;20026;-91
2023/04/23 01:54:22;;;;;;;5.03;2.70;;;;;;;10.15;72.73;101328.25;5013220;28;20801;-91
2023/04/23 01:56:47;;;;;;;11.93;3.30;;;;;;;10.21;72.90;101335.78;5029444;28;20415;-91
2023/04/23 01:59:12;;;;;;;4.13;2.72;;;;;;;10.16;73.41;101330.78;5012942;28;20029;-90
2023/04/23 02:01:45;;;;;;;16.40;3.17;;;;;;;10.22;73.17;101329.75;5028946;28;20034;-90
2023/04/23 02:04:11;;;;;;;4.47;3.28;;;;;;;10.19;72.73;101335.84;5029374;28;20036;-90
2023/04/23 02:06:37;;;;;;;3.90;3.35;;;;;;;10.14;72.84;101334.34;5029275;28;20080;-91
2023/04/23 02:09:02;;;;;;;4.00;2.10;;;;;;;10.06;72.65;101321.69;5029265;28;20030;-90
2023/04/23 02:11:28;;;;;;;3.47;2.28;;;;;;;10.11;72.48;101335.25;5013902;28;20072;-91
2023/04/23 02:13:53;;;;;;;3.60;2.30;;;;;;;9.96;72.89;101309.97;5028954;28;20052;-89
2023/04/23 02:16:19;;;;;;;4.38;2.90;;;;;;;10.06;73.22;101327.69;5029181;28;20034;-90
2023/04/23 02:18:44;;;;;;;3.13;2.83;;;;;;;10.09;73.23;101321.56;5028839;28;20064;-91
2023/04/23 02:21:11;;;;;;;5.05;3.13;;;;;;;10.16;72.93;101333.38;5028878;28;20029;-89
2023/04/23 02:23:37;;;;;;;3.15;2.72;;;;;;;10.18;72.84;101333.31;5028704;28;20034;-91
2023/04/23 02:26:03;;;;;;;7.65;3.33;;;;;;;9.92;72.31;101293.72;5028956;28;20490;-91
2023/04/23 02:28:28;;;;;;;4.65;3.20;;;;;;;9.83;72.95;101283.69;5028775;28;20068;-90
2023/04/23 02:30:53;;;;;;;6.70;3.10;;;;;;;10.14;73.00;101324.84;4995652;28;20458;-91
2023/04/23 02:33:19;;;;;;;4.85;3.10;;;;;;;10.12;73.99;101323.19;5028453;28;20037;-91
2023/04/23 02:35:45;;;;;;;4.70;2.83;;;;;;;10.18;73.30;101330.72;5028665;28;20112;-90
2023/04/23 02:38:10;;;;;;;3.28;2.55;;;;;;;10.22;73.02;101332.31;5028741;28;20037;-90
2023/04/23 02:40:36;;;;;;;4.07;3.20;;;;;;;10.25;73.39;101338.25;5012089;28;20033;-90
2023/04/23 02:43:01;;;;;;;6.90;2.80;;;;;;;10.29;72.85;101328.63;5028583;28;20480;-90
2023/04/23 02:45:27;;;;;;;6.85;2.55;;;;;;;10.22;73.20;101317.66;5012126;28;20084;-91
2023/04/23 02:47:52;;;;;;;4.25;3.03;;;;;;;10.30;73.37;101325.13;5028537;28;20030;-90
2023/04/23 02:50:18;;;;;;;3.28;2.83;;;;;;;10.32;73.42;101328.50;5028442;28;20034;-90
2023/04/23 02:52:43;;;;;;;4.47;2.88;;;;;;;10.40;73.08;101326.47;5028312;28;20040;-90
2023/04/23 02:55:09;;;;;;;4.43;3.33;;;;;;;10.35;73.24;101333.59;5011896;28;20403;-90
2023/04/23 02:57:35;;;;;;;4.35;2.90;;;;;;;10.30;73.31;101330.31;5011153;28;20546;-90
2023/04/23 03:00:01;;;;;;;2.70;2.00;;;;;;;10.29;73.53;101318.28;5028291;28;20029;-91
2023/04/23 03:02:27;;;;;;;4.30;2.70;;;;;;;10.25;73.59;101333.06;5028063;28;20033;-91
2023/04/23 03:04:52;;;;;;;3.83;2.20;;;;;;;10.20;73.29;101334.09;5028267;28;20475;-90
2023/04/23 03:07:18;;;;;;;4.72;3.10;;;;;;;10.07;73.38;101329.38;5028188;28;20033;-90
2023/04/23 03:09:43;;;;;;;4.40;3.10;;;;;;;10.08;73.82;101332.81;5028181;28;20026;-89
2023/04/23 03:12:09;;;;;;;6.72;4.60;;;;;;;9.99;73.82;101339.13;5027875;28;20538;-91
2023/04/23 03:14:34;;;;;;;8.32;3.58;;;;;;;10.01;73.77;101334.75;5011464;28;20391;-90
2023/04/23 03:17:00;;;;;;;3.80;3.05;;;;;;;9.84;74.05;101329.34;5027799;28;20556;-91
2023/04/23 03:19:25;;;;;;;6.43;3.55;;;;;;;9.82;74.41;101323.38;5027753;28;20487;-89
2023/04/23 03:21:51;;;;;;;4.13;2.80;;;;;;;9.87;74.28;101344.75;5011380;28;20029;-89
2023/04/23 03:24:16;;;;;;;3.05;2.30;;;;;;;9.84;74.34;101344.84;5012590;28;20049;-91
2023/04/23 03:26:42;;;;;;;4.65;2.67;;;;;;;9.76;74.80;101341.69;5027585;28;20480;-90
2023/04/23 03:29:07;;;;;;;6.97;3.95;;;;;;;9.82;74.38;101335.44;5027786;28;20032;-91
2023/04/23 03:31:33;;;;;;;4.38;2.50;;;;;;;9.72;74.38;101329.75;5012015;28;20030;-91
2023/04/23 03:33:58;;;;;;;6.40;3.65;;;;;;;9.83;74.37;101340.56;5027652;28;20030;-90
2023/04/23 03:36:23;;;;;;;4.22;3.42;;;;;;;9.76;74.80;101339.09;5027700;28;20038;-91
2023/04/23 03:38:49;;;;;;;4.53;3.20;;;;;;;9.87;74.98;101347.31;5027666;28;20034;-90
2023/04/23 03:41:14;;;;;;;4.38;2.97;;;;;;;9.64;75.41;101331.78;5010790;28;20034;-88
2023/04/23 03:43:40;;;;;;;5.15;3.17;;;;;;;9.63;75.66;101342.97;5027804;28;20040;-90
2023/04/23 03:46:05;;;;;;;5.55;3.85;;;;;;;9.63;75.40;101341.22;5011110;28;20037;-90
2023/04/23 03:48:31;;;;;;;5.68;3.72;;;;;;;9.65;75.27;101347.22;5027498;28;20037;-90
2023/04/23 03:50:57;;;;;;;4.88;3.05;;;;;;;9.70;75.40;101342.72;5010835;28;20033;-90
2023/04/23 03:53:22;;;;;;;4.07;2.60;;;;;;;9.72;75.18;101348.66;5027571;28;20049;-90
2023/04/23 03:55:48;;;;;;;6.80;3.60;;;;;;;9.74;74.99;101344.31;5027141;28;20025;-90
2023/04/23 03:58:13;;;;;;;5.03;3.28;;;;;;;9.75;74.46;101337.41;5012203;28;20498;-91
2023/04/23 04:00:38;;;;;;;4.97;3.85;;;;;;;9.69;74.37;101341.03;5011881;28;20034;-91
2023/04/23 04:03:04;;;;;;;6.07;3.75;;;;;;;9.81;74.63;101357.00;5010949;28;20030;-91
2023/04/23 04:05:29;;;;;;;4.32;3.03;;;;;;;9.68;74.81;101341.09;5027271;28;20037;-90
2023/04/23 04:07:55;;;;;;;4.38;3.40;;;;;;;9.60;74.46;101338.75;5027362;28;20033;-91
2023/04/23 04:10:20;;;;;;;5.25;3.83;;;;;;;9.80;74.68;101369.09;5029247;28;20037;-91
2023/04/23 04:12:46;;;;;;;8.57;4.38;;;;;;;9.82;74.87;101359.53;5031530;28;20065;-90
2023/04/23 04:15:13;;;;;;;13.98;4.47;;;;;;;9.81;75.01;101363.03;5031324;28;20041;-91
2023/04/23 04:17:38;;;;;;;7.88;4.70;;;;;;;9.69;74.53;101347.94;5031214;28;20103;-91
2023/04/23 04:20:07;;;;;;;6.10;3.95;;;;;;;9.61;75.13;101349.94;5031329;28;20117;-90
2023/04/23 04:22:32;;;;;;;4.97;4.15;;;;;;;9.75;75.48;101368.41;5030985;28;20022;-91
2023/04/23 04:24:58;;;;;;;6.30;4.00;;;;;;;9.66;75.93;101369.56;5031041;28;20033;-90
2023/04/23 04:27:23;;;;;;;5.68;3.33;;;;;;;9.69;75.56;101374.63;5014830;28;20060;-90
2023/04/23 04:29:49;;;;;;;12.40;4.47;;;;;;;9.65;75.68;101370.47;5014641;28;20041;-89
2023/04/23 04:32:15;;;;;;;10.20;3.67;;;;;;;9.72;75.76;101379.69;5030998;28;20054;-90
2023/04/23 04:34:40;;;;;;;4.80;3.28;;;;;;;9.67;75.81;101370.41;5014201;28;20053;-90
2023/04/23 04:37:06;;;;;;;5.43;3.70;;;;;;;9.84;75.83;101388.78;5031095;28;20040;-91
2023/04/23 04:39:32;;;;;;;8.43;4.60;;;;;;;9.93;75.11;101385.03;5030646;28;20041;-91
2023/04/23 04:41:58;;;;;;;7.97;4.90;;;;;;;9.97;75.61;101384.03;5030922;28;20030;-91
2023/04/23 04:44:24;;;;;;;10.07;5.70;;;;;;;10.00;74.69;101363.25;5030868;28;20026;-91
2023/04/23 04:46:50;;;;;;;8.13;3.95;;;;;;;10.10;74.90;101374.94;5030550;28;20029;-91
2023/04/23 04:49:18;;;;;;;6.13;4.55;;;;;;;10.10;74.19;101379.28;5030759;28;20084;-90
2023/04/23 04:51:43;;;;;;;6.55;4.28;;;;;;;10.15;74.42;101385.16;5030562;28;20087;-91
2023/04/23 04:54:09;;;;;;;11.63;6.68;;;;;;;10.12;74.40;101380.06;5029909;28;20030;-91
2023/04/23 04:56:34;;;;;;;7.25;4.30;;;;;;;10.13;74.81;101390.38;5014076;28;20033;-91
2023/04/23 04:59:00;;;;;;;5.70;3.97;;;;;;;10.24;74.05;101393.47;5014033;28;20491;-91
2023/04/23 05:01:27;;;;;;;7.93;4.88;;;;;;;10.34;74.06;101391.38;5030204;28;20029;-89
2023/04/23 05:03:54;;;;;;;6.68;4.80;;;;;;;10.03;74.40;101338.16;5030429;28;20029;-92
2023/04/23 05:06:19;;;;;;;12.05;5.45;;;;;;;10.28;74.21;101376.91;5013985;28;20075;-91
2023/04/23 05:08:47;;;;;;;7.90;4.55;;;;;;;10.32;74.40;101377.63;5029751;28;20030;-90
2023/04/23 05:11:18;;;;;;;11.32;6.85;;;;;;;10.49;74.21;101389.97;5030168;28;20471;-90
2023/04/23 05:13:44;;;;;;;7.30;4.57;;;;;;;10.45;73.94;101371.16;5030334;28;20049;-92
2023/04/23 05:16:10;;;;;;;9.15;5.78;;;;;;;10.61;74.00;101386.94;5030207;28;20041;-89
2023/04/23 05:18:37;;;;;;;6.13;4.95;;;;;;;10.66;74.16;101385.03;5029951;28;20049;-90
2023/04/23 05:21:02;;;;;;;6.90;4.93;;;;;;;10.72;74.36;101391.75;5012721;28;20022;-91
2023/04/23 05:23:28;;;;;;;7.13;4.13;;;;;;;10.83;74.20;101397.34;5029656;28;20096;-90
2023/04/23 05:25:55;;;;;;;5.18;3.72;;;;;;;10.88;74.33;101390.25;5013617;28;20097;-91
2023/04/23 05:28:21;;;;;;;8.07;3.85;;;;;;;11.02;73.76;101398.34;5029690;28;20030;-90
2023/04/23 05:30:46;;;;;;;7.43;5.05;;;;;;;11.08;73.00;101398.09;5029789;28;20040;-90
2023/04/23 05:33:11;;;;;;;11.13;5.15;;;;;;;11.01;73.08;101400.97;5029838;28;20036;-91
2023/04/23 05:35:37;;;;;;;7.28;4.60;;;;;;;10.98;72.45;101399.34;5013322;28;20021;-90
2023/04/23 05:38:03;;;;;;;7.43;3.45;;;;;;;10.92;72.23;101381.47;5029194;28;20121;-91
2023/04/23 05:40:29;;;;;;;4.68;3.17;;;;;;;10.86;72.32;101397.22;5029935;28;20033;-90
2023/04/23 05:42:57;;;;;;;8.35;4.15;;;;;;;10.88;72.49;101414.38;5014432;28;20480;-91
2023/04/23 05:45:22;;;;;;;6.38;3.75;;;;;;;10.76;72.17;101406.25;5013998;28;20026;-91
2023/04/23 05:47:48;;;;;;;10.85;3.90;;;;;;;10.80;73.03;101407.81;5029465;28;20389;-91
2023/04/23 05:50:13;;;;;;;3.70;2.58;;;;;;;10.84;73.06;101410.22;5029528;28;20034;-90
2023/04/23 05:52:38;;;;;;;6.50;3.75;;;;;;;10.86;72.82;101417.94;5029219;28;20475;-90
2023/04/23 05:55:05;;;;;;;5.40;3.83;;;;;;;10.93;73.14;101429.75;5029509;28;20483;-89
2023/04/23 05:57:31;;;;;;;7.75;4.65;;;;;;;10.82;72.70;101406.03;5013197;28;20474;-90
2023/04/23 05:59:56;;;;;;;5.60;4.70;;;;;;;10.96;72.78;101428.78;5029321;28;20042;-90
2023/04/23 06:02:22;;;;;;;9.38;4.50;;;;;;;10.99;73.02;101419.16;5012553;28;20022;-90
2023/04/23 06:04:47;;;;;;;5.80;3.95;;;;;;;11.12;72.45;101412.63;5029231;28;20033;-91
2023/04/23 06:07:14;;;;;;;6.50;4.15;;;;;;;11.19;72.45;101421.81;5029059;28;20030;-90
2023/04/23 06:09:40;;;;;;;6.63;4.47;;;;;;;11.20;72.74;101407.13;5029202;28;20029;-91
2023/04/23 06:12:05;;;;;;;6.53;3.75;;;;;;;11.31;71.97;101401.56;5029407;28;20037;-90
2023/04/23 06:14:31;;;;;;;7.80;4.95;;;;;;;11.55;71.56;101410.91;5029247;28;20030;-91
2023/04/23 06:16:56;;;;;;;4.90;3.60;;;;;;;11.65;70.33;101409.63;5029158;28;20540;-91
2023/04/23 06:19:25;;;;;;;7.88;4.20;;;;;;;11.56;70.94;101378.06;5028885;28;20029;-90
2023/04/23 06:21:50;;;;;;;4.13;3.10;;;;;;;11.97;70.24;101415.25;5028560;28;20537;-92
2023/04/23 06:24:16;;;;;;;6.95;4.80;;;;;;;12.10;69.27;101416.44;5028697;28;20026;-90
2023/04/23 06:26:41;;;;;;;5.65;4.35;;;;;;;12.17;69.03;101414.41;5029246;28;20021;-89
2023/04/23 06:29:07;;;;;;;8.05;4.43;;;;;;;12.30;68.65;101408.66;5013490;28;20038;-92
2023/04/23 06:31:32;;;;;;;5.88;4.10;;;;;;;12.30;67.38;101419.03;5028636;28;20026;-92
2023/04/23 06:33:57;;;;;;;7.03;4.85;;;;;;;12.26;67.82;101375.94;5028282;28;20034;-92
2023/04/23 06:36:23;;;;;;;8.55;4.25;;;;;;;12.71;67.03;101412.91;5028537;28;20471;-89
2023/04/23 06:38:48;;;;;;;7.45;5.13;;;;;;;12.85;67.05;101413.94;5028724;28;20133;-90
2023/04/23 06:41:14;;;;;;;6.70;4.65;;;;;;;12.98;66.09;101405.59;5012119;28;20092;-90
2023/04/23 06:43:40;;;;;;;7.78;5.35;;;;;;;13.13;65.55;101410.91;5028608;28;20037;-91
2023/04/23 06:46:06;;;;;;;11.55;5.80;;;;;;;12.78;66.23;101384.00;5028631;28;20037;-90
2023/04/23 06:48:31;;;;;;;7.97;4.47;;;;;;;12.95;66.14;101410.94;5028656;28;20025;-92
2023/04/23 06:50:57;;;;;;;7.25;4.05;;;;;;;13.17;65.98;101409.88;5027873;28;20048;-91
2023/04/23 06:53:22;;;;;;;10.32;5.68;;;;;;;13.27;66.27;101407.69;5028397;28;20034;-91
2023/04/23 06:55:49;;;;;;;7.03;5.22;;;;;;;13.45;65.84;101405.97;5028306;28;20037;-91
2023/04/23 06:58:14;;;;;;;8.25;6.07;;;;;;;13.48;64.88;101395.44;5011819;28;20044;-92
2023/04/23 07:00:40;;;;;;;11.60;6.60;;;;;;;13.67;64.43;101406.63;5028331;28;21157;-91
2023/04/23 07:03:06;;;;;;;8.40;5.05;;;;;;;13.73;64.47;101390.69;5028320;28;20096;-92
2023/04/23 07:05:31;;;;;;;8.27;5.18;;;;;;;13.88;63.42;101404.72;5027655;28;20041;-91
2023/04/23 07:07:57;;;;;;;9.73;6.43;;;;;;;13.94;62.94;101401.78;5028273;28;20553;-91
2023/04/23 07:10:22;;;;;;;7.50;5.20;;;;;;;14.04;62.43;101403.00;5011918;28;20096;-90
2023/04/23 07:12:48;;;;;;;15.10;6.50;;;;;;;13.98;62.54;101390.31;5028025;28;20506;-91
2023/04/23 07:15:14;;;;;;;16.92;6.40;;;;;;;14.04;62.37;101410.81;5011399;28;20034;-91
2023/04/23 07:17:40;;;;;;;9.90;6.00;;;;;;;13.99;62.17;101407.59;5027587;28;20105;-91
2023/04/23 07:20:07;;;;;;;13.10;6.80;;;;;;;14.02;61.69;101388.38;5027470;28;20474;-91
2023/04/23 07:22:33;;;;;;;10.18;6.20;;;;;;;14.31;61.00;101403.34;5027802;28;20049;-92
2023/04/23 07:24:59;;;;;;;10.15;5.22;;;;;;;14.53;59.99;101408.28;5028102;28;20062;-90
2023/04/23 07:27:24;;;;;;;8.02;6.03;;;;;;;14.59;59.52;101402.75;5012502;28;20030;-92
2023/04/23 07:29:50;;;;;;;8.63;5.00;;;;;;;14.70;58.80;101403.97;5027974;28;20034;-92
2023/04/23 07:32:15;;;;;;;13.00;5.38;;;;;;;14.73;58.28;101394.19;5027496;28;20029;-92
2023/04/23 07:34:41;;;;;;;8.50;5.30;;;;;;;14.80;59.26;101389.50;5027570;28;20101;-91
2023/04/23 07:37:06;;;;;;;8.75;4.75;;;;;;;14.74;59.26;101354.22;5027814;28;20034;-91
2023/04/23 07:39:32;;;;;;;7.55;5.32;;;;;;;15.04;57.70;101395.13;5011335;28;20541;-91
2023/04/23 07:41:57;;;;;;;8.00;4.93;;;;;;;15.14;57.27;101388.47;5027684;28;20037;-92
2023/04/23 07:44:23;;;;;;;10.02;6.05;;;;;;;15.23;58.36;101376.69;5010903;28;20022;-90
2023/04/23 07:46:49;;;;;;;9.25;5.60;;;;;;;15.29;57.55;101371.16;5027595;28;20026;-92
2023/04/23 07:49:15;;;;;;;14.10;7.30;;;;;;;15.43;57.49;101382.47;5027101;28;20510;-92
2023/04/23 07:51:40;;;;;;;9.98;6.97;;;;;;;15.40;58.39;101384.41;5027793;28;20025;-93
2023/04/23 07:54:06;;;;;;;11.82;7.43;;;;;;;15.54;58.11;101384.47;5027620;28;20084;-92
2023/04/23 07:56:32;;;;;;;12.20;7.05;;;;;;;15.61;57.65;101391.03;5027325;28;20038;-92
2023/04/23 07:58:58;;;;;;;22.70;6.85;;;;;;;15.66;57.97;101385.56;5027414;28;20408;-91
2023/04/23 08:01:24;;;;;;;20.42;7.15;;;;;;;15.85;58.61;101378.34;5027219;28;20037;-91
2023/04/23 08:03:49;;;;;;;9.70;5.63;;;;;;;16.01;56.90;101376.47;5027007;28;20483;-91
2023/04/23 08:06:15;;;;;;;12.57;7.00;;;;;;;16.11;57.14;101392.44;5012014;28;20112;-92
2023/04/23 08:08:40;;;;;;;14.65;7.75;;;;;;;16.31;57.24;101386.00;5027413;28;20411;-92
2023/04/23 08:11:06;;;;;;;9.27;6.45;;;;;;;16.34;55.14;101363.19;5027322;28;20029;-91
2023/04/23 08:13:31;;;;;;;14.40;6.88;;;;;;;16.58;55.27;101386.09;5027382;28;20034;-91
2023/04/23 08:15:57;;;;;;;18.42;7.63;;;;;;;16.52;55.54;101363.84;5010694;28;20097;-91
2023/04/23 08:18:22;;;;;;;13.65;7.72;;;;;;;16.72;55.21;101356.56;5026652;28;20061;-91
2023/04/23 08:20:48;;;;;;;16.42;7.80;;;;;;;16.94;54.11;101372.53;5027444;28;20030;-92
2023/04/23 08:23:13;;;;;;;15.13;7.05;;;;;;;16.91;54.27;101352.69;5027108;28;20038;-92
2023/04/23 08:25:39;;;;;;;11.27;6.15;;;;;;;17.02;53.55;101370.28;5027235;28;20549;-91
2023/04/23 08:28:04;;;;;;;8.43;5.90;;;;;;;17.07;53.26;101360.34;5027282;28;20026;-91
2023/04/23 08:30:30;;;;;;;13.27;5.50;;;;;;;17.06;52.95;101363.06;5027258;28;20030;-91
2023/04/23 08:32:55;;;;;;;11.98;6.25;;;;;;;17.01;51.96;101341.59;5026780;28;20498;-91
2023/04/23 08:35:21;;;;;;;8.98;5.18;;;;;;;17.16;52.78;101366.78;5027345;28;20058;-89
2023/04/23 08:37:47;;;;;;;6.60;4.63;;;;;;;17.32;52.56;101367.47;5027244;28;20113;-91
2023/04/23 08:40:12;;;;;;;10.88;5.00;;;;;;;17.49;51.32;101359.31;5027077;28;20040;-91
2023/04/23 08:42:44;;;;;;;8.73;5.57;;;;;;;17.68;50.45;101373.78;5026885;28;20041;-92
2023/04/23 08:45:10;;;;;;;13.93;5.72;;;;;;;17.70;50.71;101366.75;5027031;28;20076;-92
2023/04/23 08:47:35;;;;;;;8.35;5.75;;;;;;;17.78;51.00;101365.25;5026959;28;20480;-91
2023/04/23 08:50:01;;;;;;;11.20;5.65;;;;;;;17.92;50.14;101351.25;5027302;28;20030;-92
2023/04/23 08:52:28;;;;;;;14.52;6.53;;;;;;;18.00;50.02;101359.44;5027168;28;20026;-92
2023/04/23 08:54:56;;;;;;;10.15;6.10;;;;;;;18.11;51.33;101342.97;5026917;28;20045;-92
2023/04/23 08:57:22;;;;;;;12.20;7.32;;;;;;;18.28;49.49;101340.00;5030624;28;20503;-90
2023/04/23 08:59:47;;;;;;;8.45;5.25;;;;;;;18.40;48.35;101351.44;5030544;28;20040;-92
2023/04/23 09:02:14;;;;;;;9.30;5.15;;;;;;;18.36;47.23;101339.47;5015102;28;20037;-91
2023/04/23 09:04:40;;;;;;;6.25;4.65;;;;;;;18.37;48.00;101324.59;5030502;28;20030;-92
2023/04/23 09:07:10;;;;;;;7.22;4.57;;;;;;;18.51;47.87;101327.09;5030632;28;20033;-90
2023/04/23 09:09:35;;;;;;;9.60;5.30;;;;;;;18.60;47.37;101319.41;5030181;28;20105;-91
2023/04/23 09:12:01;;;;;;;11.38;5.13;;;;;;;18.91;47.85;101327.72;5030489;28;20523;-91
2023/04/23 09:14:26;;;;;;;9.23;5.55;;;;;;;18.99;46.53;101316.66;5030458;28;20479;-92
2023/04/23 09:16:52;;;;;;;7.65;4.43;;;;;;;19.05;45.91;101298.69;5030336;28;20037;-90
2023/04/23 09:19:18;;;;;;;9.75;5.32;;;;;;;19.17;46.07;101321.41;5030249;28;20037;-92
2023/04/23 09:21:44;;;;;;;12.45;4.95;;;;;;;18.99;46.58;101295.69;5013848;28;20030;-92
2023/04/23 09:24:13;;;;;;;8.52;4.53;;;;;;;19.23;45.50;101322.72;5030479;28;20030;-90
2023/04/23 09:26:46;;;;;;;7.63;4.85;;;;;;;19.28;45.76;101319.75;5029623;28;20055;-91
2023/04/23 09:29:22;;;;;;;;;;;;;;;19.41;45.21;101321.34;5030394;28;20030;-91
2023/04/23 09:31:49;;;;;;;6.65;4.45;;;;;;;19.52;44.71;101320.53;5013918;28;20394;-91
2023/04/23 09:34:18;;;;;;;8.10;4.38;;;;;;;19.59;44.76;101319.16;5030105;28;20069;-92
2023/04/23 09:36:44;;;;;;;8.82;4.70;;;;;;;19.63;44.11;101302.22;5030036;28;20038;-91
2023/04/23 09:39:19;;;;;;;7.57;4.32;;;;;;;19.83;44.51;101307.72;5030402;28;20040;-89
2023/04/23 09:41:45;;;;;;;7.18;4.05;;;;;;;20.01;43.76;101296.63;5030015;28;20168;-92
2023/04/23 09:44:13;;;;;;;11.25;4.05;;;;;;;20.17;43.29;101291.03;5030155;28;20026;-92
2023/04/23 09:46:40;;;;;;;6.45;3.80;;;;;;;20.16;42.30;101285.91;5030024;28;20483;-92
2023/04/23 09:49:06;;;;;;;6.95;4.53;;;;;;;20.33;42.73;101291.47;5029927;28;20030;-91
2023/04/23 09:51:36;;;;;;;5.22;3.53;;;;;;;20.48;41.88;101286.00;5029989;28;20080;-91
2023/04/23 09:54:02;;;;;;;6.85;3.80;;;;;;;20.45;41.67;101291.47;5029444;28;20487;-92
2023/04/23 09:56:30;;;;;;;8.18;4.18;;;;;;;20.51;42.45;101288.38;5029645;28;20088;-92
2023/04/23 09:58:55;;;;;;;14.00;9.35;;;;;;;20.39;41.72;101252.53;5029858;28;20027;-91
2023/04/23 10:01:27;;;;;;;7.05;4.57;;;;;;;20.59;42.43;101285.97;5029231;28;20108;-90
2023/04/23 10:03:52;;;;;;;9.85;4.00;;;;;;;20.86;42.83;101277.63;5029550;28;20026;-92
2023/04/23 10:06:18;;;;;;;5.30;3.67;;;;;;;20.98;40.72;101270.53;5012856;28;20034;-92
2023/04/23 10:08:43;;;;;;;10.07;4.38;;;;;;;21.02;40.98;101264.88;5029836;28;20479;-92
2023/04/23 10:11:09;;;;;;;8.57;3.75;;;;;;;20.84;40.86;101264.63;5029590;28;20014;-92
2023/04/23 10:13:35;;;;;;;5.53;3.50;;;;;;;20.90;39.57;101256.22;5028958;28;20505;-92
2023/04/23 10:16:01;;;;;;;5.55;3.72;;;;;;;21.00;39.09;101251.03;5013897;28;20026;-92
2023/04/23 10:18:27;;;;;;;5.30;3.45;;;;;;;21.06;39.35;101247.91;5029108;28;20049;-91
2023/04/23 10:20:52;;;;;;;7.13;3.72;;;;;;;21.19;39.31;101247.69;5029441;28;20076;-92
2023/04/23 10:23:19;;;;;;;4.53;3.33;;;;;;;21.11;38.38;101236.97;5029415;28;20026;-92
2023/04/23 10:25:45;;;;;;;8.07;3.90;;;;;;;21.27;38.73;101237.41;5012874;28;20109;-93
2023/04/23 10:28:10;;;;;;;4.07;2.70;;;;;;;21.56;37.90;101242.00;5029123;28;20034;-92
2023/04/23 10:30:36;;;;;;;5.35;3.33;;;;;;;21.54;37.34;101230.78;5029184;28;20030;-91
2023/04/23 10:33:01;;;;;;;4.43;2.90;;;;;;;21.71;36.88;101235.41;5029287;28;20113;-91
2023/04/23 10:35:27;;;;;;;5.30;3.50;;;;;;;21.84;36.68;101225.50;5028869;28;20092;-92
2023/04/23 10:37:52;;;;;;;6.13;3.95;;;;;;;21.97;35.79;101233.16;5012902;28;20080;-92
2023/04/23 10:40:20;;;;;;;4.15;2.83;;;;;;;22.17;36.20;101215.63;5028928;28;20033;-92
2023/04/23 10:42:46;;;;;;;5.90;4.18;;;;;;;22.16;36.92;101212.16;5028358;28;20026;-92
2023/04/23 10:45:15;;;;;;;6.55;3.80;;;;;;;22.15;37.03;101215.75;5028890;28;20052;-91
2023/04/23 10:47:42;;;;;;;5.68;3.50;;;;;;;22.20;37.12;101212.69;5028661;28;20032;-93
2023/04/23 10:50:24;;;;;;;7.10;3.85;;;;;;;22.30;36.41;101205.63;5029167;28;20167;-92
2023/04/23 10:52:53;;;;;;;6.60;3.58;;;;;;;22.30;37.64;101203.84;5028655;28;20054;-91
2023/04/23 10:55:23;;;;;;;9.95;3.67;;;;;;;22.20;37.09;101202.16;5012144;28;20128;-91
2023/04/23 10:57:55;;;;;;;6.55;4.07;;;;;;;22.26;36.70;101197.19;5028362;28;20029;-92
2023/04/23 11:00:21;;;;;;;4.88;3.58;;;;;;;22.32;37.13;101186.09;5028548;28;20044;-92
2023/04/23 11:02:46;;;;;;;5.25;3.30;;;;;;;22.44;36.15;101189.44;5028677;28;20029;-92
2023/04/23 11:05:12;;;;;;;6.03;3.60;;;;;;;22.29;35.68;101151.28;5028462;28;20037;-92
2023/04/23 11:07:38;;;;;;;10.27;3.45;;;;;;;22.44;34.81;101172.78;5028448;28;20034;-93
2023/04/23 11:10:13;;;;;;;5.40;3.40;;;;;;;22.51;33.67;101182.63;5028162;28;20018;-92
2023/04/23 11:12:39;;;;;;;9.80;2.75;;;;;;;22.73;34.33;101172.78;4994967;28;20095;-92
2023/04/23 11:15:11;;;;;;;4.78;3.33;;;;;;;22.86;35.17;101179.44;5028477;28;20038;-93
2023/04/23 11:17:36;;;;;;;6.32;3.70;;;;;;;23.05;34.90;101170.66;5028072;28;20064;-92